createdAt,value
2024-03-23T00:00:57.066Z,996.33
2024-03-23T00:01:57.017Z,996.38
2024-03-23T00:02:57.028Z,996.35
2024-03-23T00:03:57.018Z,996.35
2024-03-23T00:04:56.992Z,996.30
2024-03-23T00:05:56.965Z,996.25
2024-03-23T00:06:56.963Z,996.20
2024-03-23T00:07:56.945Z,996.14
2024-03-23T00:08:56.955Z,996.06
2024-03-23T00:09:56.955Z,996.04
2024-03-23T00:10:56.929Z,996.07
2024-03-23T00:11:56.899Z,996.05
2024-03-23T00:12:56.895Z,996.05
2024-03-23T00:13:56.883Z,995.99
2024-03-23T00:14:56.887Z,996.06
2024-03-23T00:15:56.859Z,996.01
2024-03-23T00:16:56.869Z,995.95
2024-03-23T00:17:56.863Z,995.98
2024-03-23T00:18:56.866Z,995.98
2024-03-23T00:19:56.824Z,995.95
2024-03-23T00:20:56.812Z,995.96
2024-03-23T00:21:56.812Z,995.92
2024-03-23T00:22:56.812Z,996.01
2024-03-23T00:23:56.821Z,996.03
2024-03-23T00:24:56.764Z,995.98
2024-03-23T00:25:56.786Z,995.96
2024-03-23T00:26:56.895Z,995.91
2024-03-23T00:27:56.738Z,995.85
2024-03-23T00:28:56.727Z,995.90
2024-03-23T00:29:56.781Z,995.91
2024-03-23T00:30:56.699Z,995.88
2024-03-23T00:31:56.695Z,995.89
2024-03-23T00:32:56.686Z,995.87
2024-03-23T00:33:56.692Z,995.86
2024-03-23T00:34:56.655Z,995.86
2024-03-23T00:35:56.640Z,995.82
2024-03-23T00:36:56.694Z,995.81
2024-03-23T00:37:56.613Z,995.79
2024-03-23T00:38:56.641Z,995.73
2024-03-23T00:39:56.609Z,995.71
2024-03-23T00:40:56.584Z,995.67
2024-03-23T00:42:00.139Z,995.65
2024-03-23T00:42:56.561Z,995.66
2024-03-23T00:43:56.549Z,995.61
2024-03-23T00:44:56.611Z,995.64
2024-03-23T00:45:56.531Z,995.55
2024-03-23T00:46:56.532Z,995.53
2024-03-23T00:47:56.526Z,995.46
2024-03-23T00:48:56.501Z,995.39
2024-03-23T00:49:56.520Z,995.39
2024-03-23T00:50:56.531Z,995.39
2024-03-23T00:51:56.504Z,995.31
2024-03-23T00:52:56.454Z,995.35
2024-03-23T00:53:56.466Z,995.24
2024-03-23T00:54:56.433Z,995.12
2024-03-23T00:55:56.438Z,995.17
2024-03-23T00:56:56.415Z,995.17
2024-03-23T00:57:56.435Z,995.20
2024-03-23T00:58:56.431Z,995.17
2024-03-23T00:59:56.378Z,995.19
2024-03-23T01:00:56.387Z,995.20
2024-03-23T01:01:56.366Z,995.21
2024-03-23T01:02:56.367Z,995.22
2024-03-23T01:03:56.323Z,995.22
2024-03-23T01:04:56.324Z,995.13
2024-03-23T01:05:56.320Z,995.19
2024-03-23T01:06:56.317Z,995.15
2024-03-23T01:07:56.298Z,995.12
2024-03-23T01:08:56.285Z,995.10
2024-03-23T01:09:56.263Z,995.05
2024-03-23T01:10:56.257Z,995.00
2024-03-23T01:11:56.243Z,995.02
2024-03-23T01:12:56.273Z,995.02
2024-03-23T01:13:56.242Z,994.96
2024-03-23T01:14:56.260Z,994.89
2024-03-23T01:15:56.195Z,994.89
2024-03-23T01:16:56.274Z,994.93
2024-03-23T01:17:56.205Z,994.93
2024-03-23T01:18:56.162Z,994.96
2024-03-23T01:19:56.193Z,994.86
2024-03-23T01:20:56.207Z,994.87
2024-03-23T01:21:56.172Z,994.93
2024-03-23T01:22:57.708Z,994.86
2024-03-23T01:23:56.139Z,994.84
2024-03-23T01:24:56.116Z,994.78
2024-03-23T01:25:56.095Z,994.75
2024-03-23T01:26:56.084Z,994.77
2024-03-23T01:27:56.085Z,994.75
2024-03-23T01:28:56.062Z,994.73
2024-03-23T01:29:56.082Z,994.73
2024-03-23T01:30:56.072Z,994.73
2024-03-23T01:31:56.085Z,994.72
2024-03-23T01:32:56.079Z,994.75
2024-03-23T01:33:56.036Z,994.73
2024-03-23T01:34:56.062Z,994.72
2024-03-23T01:35:56.099Z,994.73
2024-03-23T01:36:56.057Z,994.72
2024-03-23T01:37:56.041Z,994.69
2024-03-23T01:38:56.073Z,994.70
2024-03-23T01:39:55.943Z,994.66
2024-03-23T01:40:55.919Z,994.66
2024-03-23T01:41:55.932Z,994.63
2024-03-23T01:42:55.899Z,994.63
2024-03-23T01:43:55.921Z,994.64
2024-03-23T01:44:55.919Z,994.60
2024-03-23T01:45:55.896Z,994.63
2024-03-23T01:46:55.864Z,994.56
2024-03-23T01:47:55.848Z,994.46
2024-03-23T01:48:55.836Z,994.49
2024-03-23T01:49:55.833Z,994.47
2024-03-23T01:50:55.835Z,994.43
2024-03-23T01:51:55.793Z,994.50
2024-03-23T01:52:55.809Z,994.41
2024-03-23T01:53:55.789Z,994.45
2024-03-23T01:54:55.819Z,994.40
2024-03-23T01:55:55.752Z,994.52
2024-03-23T01:56:55.776Z,994.46
2024-03-23T01:57:55.773Z,994.53
2024-03-23T01:58:55.730Z,994.54
2024-03-23T01:59:55.715Z,994.53
2024-03-23T02:00:55.728Z,994.53
2024-03-23T02:01:55.735Z,994.53
2024-03-23T02:02:55.684Z,994.55
2024-03-23T02:03:55.664Z,994.54
2024-03-23T02:04:55.675Z,994.51
2024-03-23T02:05:55.648Z,994.58
2024-03-23T02:06:55.665Z,994.57
2024-03-23T02:07:55.655Z,994.55
2024-03-23T02:08:55.635Z,994.57
2024-03-23T02:09:55.618Z,994.45
2024-03-23T02:10:55.610Z,994.48
2024-03-23T02:11:55.644Z,994.43
2024-03-23T02:12:55.591Z,994.46
2024-03-23T02:13:55.593Z,994.43
2024-03-23T02:14:55.545Z,994.47
2024-03-23T02:15:55.556Z,994.38
2024-03-23T02:16:55.539Z,994.39
2024-03-23T02:17:55.516Z,994.39
2024-03-23T02:18:55.516Z,994.37
2024-03-23T02:19:55.499Z,994.34
2024-03-23T02:20:55.498Z,994.35
2024-03-23T02:21:55.470Z,994.31
2024-03-23T02:22:55.511Z,994.27
2024-03-23T02:23:55.454Z,994.26
2024-03-23T02:24:55.472Z,994.24
2024-03-23T02:25:55.497Z,994.18
2024-03-23T02:26:55.416Z,994.19
2024-03-23T02:27:55.412Z,994.21
2024-03-23T02:28:55.401Z,994.17
2024-03-23T02:29:55.421Z,994.17
2024-03-23T02:30:55.368Z,994.07
2024-03-23T02:31:55.361Z,994.13
2024-03-23T02:32:55.369Z,994.07
2024-03-23T02:33:55.382Z,994.07
2024-03-23T02:34:55.347Z,994.06
2024-03-23T02:35:55.358Z,994.06
2024-03-23T02:36:55.332Z,994.00
2024-03-23T02:37:55.309Z,994.03
2024-03-23T02:38:55.329Z,994.00
2024-03-23T02:39:55.275Z,993.98
2024-03-23T02:40:55.269Z,993.99
2024-03-23T02:41:55.264Z,993.99
2024-03-23T02:42:55.290Z,993.94
2024-03-23T02:43:55.259Z,993.92
2024-03-23T02:44:55.208Z,993.94
2024-03-23T02:45:55.204Z,993.94
2024-03-23T02:46:55.209Z,993.88
2024-03-23T02:47:55.204Z,993.84
2024-03-23T02:48:55.173Z,993.87
2024-03-23T02:49:55.166Z,993.85
2024-03-23T02:50:55.191Z,993.84
2024-03-23T02:51:55.129Z,993.90
2024-03-23T02:52:55.173Z,993.91
2024-03-23T02:53:55.125Z,993.97
2024-03-23T02:54:55.113Z,993.99
2024-03-23T02:55:55.120Z,993.93
2024-03-23T02:56:55.116Z,993.90
2024-03-23T02:57:55.063Z,993.85
2024-03-23T02:58:55.068Z,993.81
2024-03-23T02:59:55.076Z,993.75
2024-03-23T03:00:55.044Z,993.79
2024-03-23T03:01:55.037Z,993.68
2024-03-23T03:02:55.010Z,993.57
2024-03-23T03:03:55.000Z,993.58
2024-03-23T03:04:55.907Z,993.67
2024-03-23T03:05:55.001Z,993.64
2024-03-23T03:06:54.984Z,993.69
2024-03-23T03:07:54.984Z,993.69
2024-03-23T03:08:54.963Z,993.67
2024-03-23T03:09:54.991Z,993.78
2024-03-23T03:10:54.939Z,993.66
2024-03-23T03:11:54.922Z,993.68
2024-03-23T03:12:54.931Z,993.58
2024-03-23T03:13:54.914Z,993.65
2024-03-23T03:14:54.886Z,993.68
2024-03-23T03:15:54.938Z,993.64
2024-03-23T03:16:54.856Z,993.55
2024-03-23T03:17:54.849Z,993.59
2024-03-23T03:18:54.862Z,993.54
2024-03-23T03:19:54.818Z,993.44
2024-03-23T03:20:54.810Z,993.43
2024-03-23T03:21:54.882Z,993.35
2024-03-23T03:22:54.787Z,993.46
2024-03-23T03:23:54.781Z,993.40
2024-03-23T03:24:54.776Z,993.36
2024-03-23T03:25:54.786Z,993.35
2024-03-23T03:26:54.782Z,993.30
2024-03-23T03:27:54.776Z,993.35
2024-03-23T03:28:54.754Z,993.30
2024-03-23T03:29:54.721Z,993.31
2024-03-23T03:30:54.740Z,993.32
2024-03-23T03:31:54.694Z,993.27
2024-03-23T03:32:54.740Z,993.13
2024-03-23T03:33:54.670Z,993.13
2024-03-23T03:34:54.652Z,993.08
2024-03-23T03:35:54.667Z,993.02
2024-03-23T03:36:54.657Z,993.02
2024-03-23T03:37:54.627Z,993.10
2024-03-23T03:38:54.626Z,993.14
2024-03-23T03:39:54.598Z,993.09
2024-03-23T03:40:54.591Z,993.09
2024-03-23T03:41:54.578Z,993.02
2024-03-23T03:42:54.563Z,993.02
2024-03-23T03:43:54.578Z,993.01
2024-03-23T03:44:54.556Z,992.97
2024-03-23T03:45:54.558Z,992.98
2024-03-23T03:46:54.551Z,992.96
2024-03-23T03:47:54.523Z,992.90
2024-03-23T03:48:54.503Z,992.86
2024-03-23T03:49:54.495Z,992.87
2024-03-23T03:50:54.486Z,992.87
2024-03-23T03:51:54.508Z,992.87
2024-03-23T03:52:54.463Z,992.89
2024-03-23T03:53:54.504Z,992.90
2024-03-23T03:54:54.431Z,992.85
2024-03-23T03:55:54.423Z,992.87
2024-03-23T03:56:54.458Z,992.89
2024-03-23T03:57:54.400Z,992.92
2024-03-23T03:58:54.399Z,992.89
2024-03-23T03:59:54.372Z,992.96
2024-03-23T04:00:54.390Z,992.92
2024-03-23T04:01:54.351Z,992.94
2024-03-23T04:02:54.367Z,992.90
2024-03-23T04:03:54.351Z,993.00
2024-03-23T04:04:54.354Z,992.91
2024-03-23T04:05:54.320Z,992.98
2024-03-23T04:06:54.296Z,992.99
2024-03-23T04:07:54.287Z,992.84
2024-03-23T04:08:54.279Z,992.88
2024-03-23T04:09:54.302Z,992.87
2024-03-23T04:10:54.269Z,992.91
2024-03-23T04:11:54.251Z,992.85
2024-03-23T04:12:54.253Z,992.83
2024-03-23T04:13:54.252Z,992.86
2024-03-23T04:14:54.217Z,992.85
2024-03-23T04:15:54.219Z,992.86
2024-03-23T04:16:54.210Z,992.79
2024-03-23T04:17:54.216Z,992.76
2024-03-23T04:18:54.223Z,992.71
2024-03-23T04:19:54.159Z,992.53
2024-03-23T04:20:54.204Z,992.30
2024-03-23T04:21:54.145Z,992.28
2024-03-23T04:22:54.162Z,992.29
2024-03-23T04:23:54.148Z,992.31
2024-03-23T04:24:54.106Z,992.27
2024-03-23T04:25:54.091Z,992.32
2024-03-23T04:26:54.082Z,992.31
2024-03-23T04:27:54.092Z,992.30
2024-03-23T04:28:54.057Z,992.27
2024-03-23T04:29:54.131Z,992.19
2024-03-23T04:30:54.038Z,992.17
2024-03-23T04:31:54.021Z,992.12
2024-03-23T04:32:54.111Z,992.06
2024-03-23T04:33:54.021Z,992.04
2024-03-23T04:34:54.024Z,991.99
2024-03-23T04:35:53.988Z,991.95
2024-03-23T04:36:53.967Z,992.02
2024-03-23T04:37:53.965Z,992.03
2024-03-23T04:38:53.983Z,991.94
2024-03-23T04:39:53.966Z,991.87
2024-03-23T04:40:53.919Z,991.85
2024-03-23T04:41:53.914Z,991.88
2024-03-23T04:42:53.936Z,991.91
2024-03-23T04:43:53.910Z,991.94
2024-03-23T04:44:53.891Z,991.94
2024-03-23T04:45:53.895Z,991.91
2024-03-23T04:46:53.869Z,991.94
2024-03-23T04:47:53.880Z,991.90
2024-03-23T04:48:53.866Z,991.89
2024-03-23T04:49:53.830Z,991.90
2024-03-23T04:50:53.869Z,991.86
2024-03-23T04:51:53.806Z,991.87
2024-03-23T04:52:53.807Z,991.83
2024-03-23T04:53:53.817Z,991.88
2024-03-23T04:54:53.798Z,991.90
2024-03-23T04:55:53.760Z,991.84
2024-03-23T04:56:53.740Z,991.86
2024-03-23T04:57:53.746Z,991.83
2024-03-23T04:58:53.750Z,991.85
2024-03-23T04:59:53.706Z,991.83
2024-03-23T05:00:53.699Z,991.75
2024-03-23T05:01:53.696Z,991.67
2024-03-23T05:02:53.683Z,991.68
2024-03-23T05:03:53.663Z,991.60
2024-03-23T05:04:53.711Z,991.58
2024-03-23T05:05:53.720Z,991.59
2024-03-23T05:06:53.632Z,991.53
2024-03-23T05:07:53.625Z,991.45
2024-03-23T05:08:53.623Z,991.28
2024-03-23T05:09:53.623Z,991.13
2024-03-23T05:10:53.606Z,991.09
2024-03-23T05:11:53.615Z,991.13
2024-03-23T05:12:53.593Z,991.14
2024-03-23T05:13:53.555Z,991.14
2024-03-23T05:14:53.549Z,991.14
2024-03-23T05:15:53.555Z,991.20
2024-03-23T05:16:53.524Z,991.23
2024-03-23T05:17:53.523Z,991.26
2024-03-23T05:18:53.520Z,991.23
2024-03-23T05:19:53.506Z,991.20
2024-03-23T05:20:53.547Z,991.16
2024-03-23T05:21:53.468Z,991.15
2024-03-23T05:22:53.484Z,991.11
2024-03-23T05:23:53.466Z,991.08
2024-03-23T05:24:53.430Z,991.09
2024-03-23T05:25:53.430Z,991.08
2024-03-23T05:26:53.407Z,991.08
2024-03-23T05:27:53.398Z,991.11
2024-03-23T05:28:53.437Z,991.09
2024-03-23T05:29:53.379Z,991.07
2024-03-23T05:30:53.360Z,991.14
2024-03-23T05:31:53.353Z,991.10
2024-03-23T05:32:53.363Z,991.20
2024-03-23T05:33:53.333Z,991.18
2024-03-23T05:34:53.347Z,991.21
2024-03-23T05:35:53.316Z,991.13
2024-03-23T05:36:53.356Z,991.08
2024-03-23T05:37:53.307Z,991.13
2024-03-23T05:38:53.283Z,991.13
2024-03-23T05:39:53.273Z,991.11
2024-03-23T05:40:53.291Z,991.15
2024-03-23T05:41:53.278Z,991.10
2024-03-23T05:42:53.295Z,991.13
2024-03-23T05:43:53.232Z,991.10
2024-03-23T05:44:53.218Z,991.08
2024-03-23T05:45:53.203Z,991.02
2024-03-23T05:46:53.203Z,991.03
2024-03-23T05:47:53.221Z,991.01
2024-03-23T05:48:53.177Z,990.97
2024-03-23T05:49:53.174Z,990.82
2024-03-23T05:50:53.177Z,990.74
2024-03-23T05:51:53.142Z,990.69
2024-03-23T05:52:53.145Z,990.57
2024-03-23T05:53:53.115Z,990.57
2024-03-23T05:54:53.128Z,990.64
2024-03-23T05:55:53.136Z,990.66
2024-03-23T05:56:53.129Z,990.72
2024-03-23T05:57:53.076Z,990.77
2024-03-23T05:58:53.061Z,990.82
2024-03-23T05:59:53.091Z,990.76
2024-03-23T06:00:53.076Z,990.82
2024-03-23T06:01:53.024Z,990.76
2024-03-23T06:02:53.012Z,990.77
2024-03-23T06:03:53.024Z,990.84
2024-03-23T06:04:53.007Z,990.83
2024-03-23T06:05:53.808Z,990.87
2024-03-23T06:06:52.983Z,990.87
2024-03-23T06:07:52.974Z,990.79
2024-03-23T06:08:52.973Z,990.76
2024-03-23T06:09:52.957Z,990.77
2024-03-23T06:10:52.947Z,990.66
2024-03-23T06:11:52.906Z,990.58
2024-03-23T06:12:52.893Z,990.58
2024-03-23T06:13:52.894Z,990.63
2024-03-23T06:14:52.904Z,990.54
2024-03-23T06:15:52.885Z,990.61
2024-03-23T06:16:52.882Z,990.74
2024-03-23T06:17:52.836Z,990.68
2024-03-23T06:18:52.843Z,990.65
2024-03-23T06:19:52.838Z,990.60
2024-03-23T06:20:52.809Z,990.60
2024-03-23T06:21:52.828Z,990.45
2024-03-23T06:22:52.841Z,990.35
2024-03-23T06:23:52.784Z,990.27
2024-03-23T06:24:52.819Z,990.26
2024-03-23T06:25:52.755Z,990.28
2024-03-23T06:26:52.744Z,990.29
2024-03-23T06:27:52.776Z,990.28
2024-03-23T06:28:52.743Z,990.28
2024-03-23T06:29:52.750Z,990.22
2024-03-23T06:30:52.701Z,990.16
2024-03-23T06:31:52.708Z,990.11
2024-03-23T06:32:52.674Z,990.16
2024-03-23T06:33:52.721Z,990.18
2024-03-23T06:34:52.656Z,990.11
2024-03-23T06:35:52.664Z,990.17
2024-03-23T06:36:52.631Z,990.12
2024-03-23T06:37:52.665Z,990.12
2024-03-23T06:38:52.679Z,990.08
2024-03-23T06:40:00.302Z,990.07
2024-03-23T06:40:52.591Z,990.04
2024-03-23T06:41:52.591Z,990.00
2024-03-23T06:42:52.561Z,989.99
2024-03-23T06:43:54.124Z,989.99
2024-03-23T06:44:52.553Z,989.95
2024-03-23T06:45:52.538Z,989.91
2024-03-23T06:46:52.537Z,989.92
2024-03-23T06:47:52.515Z,989.90
2024-03-23T06:48:52.506Z,989.85
2024-03-23T06:49:52.502Z,989.85
2024-03-23T06:50:52.488Z,989.80
2024-03-23T06:51:52.470Z,989.72
2024-03-23T06:52:52.468Z,989.70
2024-03-23T06:53:52.461Z,989.66
2024-03-23T06:54:52.444Z,989.64
2024-03-23T06:55:52.428Z,989.61
2024-03-23T06:56:52.405Z,989.67
2024-03-23T06:57:52.430Z,989.68
2024-03-23T06:58:52.418Z,989.72
2024-03-23T06:59:52.372Z,989.68
2024-03-23T07:00:52.390Z,989.60
2024-03-23T07:01:52.399Z,989.60
2024-03-23T07:02:52.345Z,989.56
2024-03-23T07:03:52.364Z,989.59
2024-03-23T07:04:52.334Z,989.62
2024-03-23T07:05:52.319Z,989.59
2024-03-23T07:06:52.309Z,989.60
2024-03-23T07:07:52.293Z,989.57
2024-03-23T07:08:52.331Z,989.58
2024-03-23T07:09:52.263Z,989.58
2024-03-23T07:10:52.249Z,989.56
2024-03-23T07:11:52.260Z,989.48
2024-03-23T07:12:52.227Z,989.56
2024-03-23T07:13:52.212Z,989.59
2024-03-23T07:14:52.220Z,989.55
2024-03-23T07:15:52.239Z,989.64
2024-03-23T07:16:59.778Z,989.65
2024-03-23T07:17:52.175Z,989.67
2024-03-23T07:18:52.213Z,989.65
2024-03-23T07:19:52.150Z,989.66
2024-03-23T07:20:52.142Z,989.57
2024-03-23T07:21:52.268Z,989.43
2024-03-23T07:22:52.114Z,989.35
2024-03-23T07:23:52.116Z,989.24
2024-03-23T07:24:52.099Z,989.24
2024-03-23T07:25:52.081Z,989.22
2024-03-23T07:26:52.070Z,989.31
2024-03-23T07:27:52.154Z,989.44
2024-03-23T07:28:52.048Z,989.48
2024-03-23T07:29:52.048Z,989.59
2024-03-23T07:30:52.029Z,989.68
2024-03-23T07:31:52.033Z,989.87
2024-03-23T07:32:52.015Z,989.90
2024-03-23T07:33:51.990Z,989.91
2024-03-23T07:34:52.053Z,989.80
2024-03-23T07:35:51.974Z,989.72
2024-03-23T07:36:51.955Z,989.77
2024-03-23T07:37:51.961Z,989.72
2024-03-23T07:38:52.698Z,989.69
2024-03-23T07:39:52.925Z,989.81
2024-03-23T07:40:52.490Z,989.92
2024-03-23T07:41:51.917Z,990.08
2024-03-23T07:42:51.968Z,990.09
2024-03-23T07:43:51.893Z,990.14
2024-03-23T07:44:51.909Z,990.10
2024-03-23T07:45:51.895Z,990.20
2024-03-23T07:46:51.999Z,990.18
2024-03-23T07:47:51.835Z,990.26
2024-03-23T07:48:51.825Z,990.25
2024-03-23T07:49:51.851Z,990.34
2024-03-23T07:50:51.857Z,990.21
2024-03-23T07:51:51.815Z,990.28
2024-03-23T07:52:51.786Z,990.20
2024-03-23T07:53:51.778Z,990.30
2024-03-23T07:54:51.777Z,990.29
2024-03-23T07:55:51.761Z,990.34
2024-03-23T07:56:51.737Z,990.45
2024-03-23T07:57:51.738Z,990.48
2024-03-23T07:58:51.712Z,990.50
2024-03-23T07:59:51.716Z,990.48
2024-03-23T08:00:51.705Z,990.62
2024-03-23T08:01:51.694Z,990.53
2024-03-23T08:02:51.672Z,990.57
2024-03-23T08:03:51.681Z,990.51
2024-03-23T08:04:51.729Z,990.56
2024-03-23T08:05:51.641Z,990.54
2024-03-23T08:07:59.206Z,990.39
2024-03-23T08:08:51.612Z,990.23
2024-03-23T08:09:51.595Z,990.44
2024-03-23T08:10:51.626Z,990.38
2024-03-23T08:11:51.585Z,990.52
2024-03-23T08:12:51.564Z,990.41
2024-03-23T08:13:51.551Z,990.55
2024-03-23T08:14:51.577Z,990.43
2024-03-23T08:15:51.535Z,990.51
2024-03-23T08:16:51.529Z,990.47
2024-03-23T08:17:51.561Z,990.44
2024-03-23T08:18:51.496Z,990.58
2024-03-23T08:19:51.501Z,990.54
2024-03-23T08:20:51.553Z,990.69
2024-03-23T08:21:51.555Z,990.70
2024-03-23T08:22:51.456Z,990.77
2024-03-23T08:23:51.436Z,990.72
2024-03-23T08:24:51.427Z,990.86
2024-03-23T08:25:51.416Z,990.87
2024-03-23T08:26:53.721Z,990.98
2024-03-23T08:27:51.483Z,990.99
2024-03-23T08:28:51.394Z,990.97
2024-03-23T08:29:51.385Z,991.02
2024-03-23T08:30:51.364Z,990.97
2024-03-23T08:31:51.410Z,991.18
2024-03-23T08:32:51.336Z,991.16
2024-03-23T08:33:51.387Z,991.23
2024-03-23T08:34:51.337Z,991.26
2024-03-23T08:35:51.319Z,991.30
2024-03-23T08:36:51.300Z,991.34
2024-03-23T08:37:51.299Z,991.39
2024-03-23T08:38:51.304Z,991.48
2024-03-23T08:39:51.276Z,991.55
2024-03-23T08:40:51.247Z,991.54
2024-03-23T08:41:51.253Z,991.54
2024-03-23T08:42:51.236Z,991.54
2024-03-23T08:43:51.223Z,991.58
2024-03-23T08:44:51.224Z,991.67
2024-03-23T08:45:51.203Z,991.65
2024-03-23T08:46:51.197Z,991.72
2024-03-23T08:47:51.186Z,991.76
2024-03-23T08:48:51.178Z,991.80
2024-03-23T08:49:51.164Z,991.92
2024-03-23T08:50:51.160Z,991.96
2024-03-23T08:51:51.127Z,992.07
2024-03-23T08:52:51.119Z,992.02
2024-03-23T08:53:51.108Z,992.08
2024-03-23T08:54:51.123Z,992.16
2024-03-23T08:55:53.203Z,992.04
2024-03-23T08:56:51.069Z,992.07
2024-03-23T08:57:51.102Z,992.09
2024-03-23T08:58:51.049Z,992.06
2024-03-23T08:59:51.046Z,992.01
2024-03-23T09:00:51.071Z,992.09
2024-03-23T09:01:51.024Z,992.09
2024-03-23T09:02:51.033Z,992.12
2024-03-23T09:03:51.016Z,992.13
2024-03-23T09:04:51.000Z,992.17
2024-03-23T09:05:50.971Z,992.14
2024-03-23T09:06:50.986Z,992.19
2024-03-23T09:07:50.965Z,992.22
2024-03-23T09:08:50.939Z,992.29
2024-03-23T09:09:50.933Z,992.34
2024-03-23T09:10:50.924Z,992.33
2024-03-23T09:11:50.912Z,992.38
2024-03-23T09:12:50.912Z,992.38
2024-03-23T09:13:50.923Z,992.51
2024-03-23T09:14:50.883Z,992.51
2024-03-23T09:15:50.864Z,992.50
2024-03-23T09:16:50.854Z,992.54
2024-03-23T09:17:50.859Z,992.54
2024-03-23T09:18:50.825Z,992.54
2024-03-23T09:19:50.885Z,992.50
2024-03-23T09:20:50.810Z,992.41
2024-03-23T09:21:50.816Z,992.39
2024-03-23T09:22:50.786Z,992.36
2024-03-23T09:23:50.787Z,992.25
2024-03-23T09:24:50.757Z,992.33
2024-03-23T09:25:50.744Z,992.31
2024-03-23T09:26:50.766Z,992.32
2024-03-23T09:27:50.735Z,992.35
2024-03-23T09:28:50.725Z,992.28
2024-03-23T09:29:50.699Z,992.33
2024-03-23T09:30:50.688Z,992.32
2024-03-23T09:31:50.678Z,992.36
2024-03-23T09:32:50.693Z,992.32
2024-03-23T09:33:50.663Z,992.39
2024-03-23T09:34:50.668Z,992.47
2024-03-23T09:35:50.657Z,992.57
2024-03-23T09:36:50.628Z,992.63
2024-03-23T09:37:50.612Z,992.77
2024-03-23T09:38:50.630Z,992.88
2024-03-23T09:39:50.611Z,992.92
2024-03-23T09:40:50.611Z,992.96
2024-03-23T09:41:50.562Z,993.04
2024-03-23T09:42:50.559Z,993.09
2024-03-23T09:43:50.560Z,993.11
2024-03-23T09:44:50.533Z,993.21
2024-03-23T09:45:50.538Z,993.25
2024-03-23T09:46:50.508Z,993.34
2024-03-23T09:47:51.349Z,993.31
2024-03-23T09:48:50.483Z,993.28
2024-03-23T09:49:50.498Z,993.28
2024-03-23T09:50:50.504Z,993.36
2024-03-23T09:51:50.467Z,993.33
2024-03-23T09:52:50.440Z,993.22
2024-03-23T09:53:50.437Z,993.20
2024-03-23T09:54:50.421Z,993.15
2024-03-23T09:55:50.415Z,993.15
2024-03-23T09:56:50.434Z,993.15
2024-03-23T09:57:50.382Z,993.18
2024-03-23T09:58:50.370Z,993.22
2024-03-23T09:59:50.364Z,993.30
2024-03-23T10:00:50.369Z,993.37
2024-03-23T10:01:50.392Z,993.38
2024-03-23T10:02:50.378Z,993.39
2024-03-23T10:03:50.328Z,993.50
2024-03-23T10:04:50.304Z,993.50
2024-03-23T10:05:50.313Z,993.58
2024-03-23T10:06:50.283Z,993.63
2024-03-23T10:07:50.288Z,993.71
2024-03-23T10:08:50.270Z,993.74
2024-03-23T10:09:50.251Z,993.75
2024-03-23T10:10:50.254Z,993.80
2024-03-23T10:11:50.270Z,993.86
2024-03-23T10:12:50.242Z,993.88
2024-03-23T10:13:50.213Z,993.87
2024-03-23T10:14:50.222Z,993.92
2024-03-23T10:15:50.187Z,993.94
2024-03-23T10:16:50.192Z,993.99
2024-03-23T10:17:50.178Z,993.93
2024-03-23T10:18:50.150Z,993.94
2024-03-23T10:19:50.143Z,993.98
2024-03-23T10:20:50.128Z,994.03
2024-03-23T10:21:50.140Z,994.02
2024-03-23T10:22:50.108Z,994.04
2024-03-23T10:23:50.134Z,994.06
2024-03-23T10:24:50.093Z,994.10
2024-03-23T10:25:50.081Z,994.11
2024-03-23T10:26:50.063Z,994.10
2024-03-23T10:27:50.101Z,994.16
2024-03-23T10:28:50.050Z,994.23
2024-03-23T10:29:50.026Z,994.25
2024-03-23T10:30:50.020Z,994.31
2024-03-23T10:31:50.029Z,994.36
2024-03-23T10:32:49.996Z,994.36
2024-03-23T10:33:49.983Z,994.46
2024-03-23T10:34:49.985Z,994.52
2024-03-23T10:35:50.730Z,994.49
2024-03-23T10:36:49.967Z,994.55
2024-03-23T10:37:49.961Z,994.46
2024-03-23T10:38:49.948Z,994.59
2024-03-23T10:39:49.925Z,994.42
2024-03-23T10:40:49.943Z,994.47
2024-03-23T10:41:49.896Z,994.45
2024-03-23T10:42:49.924Z,994.47
2024-03-23T10:43:49.879Z,994.48
2024-03-23T10:44:49.930Z,994.59
2024-03-23T10:45:49.880Z,994.57
2024-03-23T10:46:49.839Z,994.53
2024-03-23T10:47:49.834Z,994.59
2024-03-23T10:48:49.834Z,994.60
2024-03-23T10:49:49.835Z,994.57
2024-03-23T10:50:49.797Z,994.62
2024-03-23T10:51:49.787Z,994.62
2024-03-23T10:52:49.786Z,994.69
2024-03-23T10:53:49.777Z,994.75
2024-03-23T10:54:49.759Z,994.65
2024-03-23T10:55:49.769Z,994.75
2024-03-23T10:56:49.730Z,994.70
2024-03-23T10:57:49.730Z,994.76
2024-03-23T10:58:49.714Z,994.82
2024-03-23T10:59:49.703Z,994.82
2024-03-23T11:00:49.724Z,994.76
2024-03-23T11:01:49.686Z,994.81
2024-03-23T11:02:49.662Z,994.75
2024-03-23T11:03:49.656Z,994.83
2024-03-23T11:04:49.648Z,994.82
2024-03-23T11:05:49.642Z,994.81
2024-03-23T11:06:49.665Z,994.84
2024-03-23T11:07:49.685Z,994.80
2024-03-23T11:08:49.593Z,994.81
2024-03-23T11:09:49.587Z,994.90
2024-03-23T11:10:49.584Z,994.82
2024-03-23T11:11:49.576Z,994.81
2024-03-23T11:12:49.565Z,994.80
2024-03-23T11:13:49.726Z,994.81
2024-03-23T11:14:49.530Z,994.80
2024-03-23T11:15:49.514Z,994.81
2024-03-23T11:16:49.517Z,994.88
2024-03-23T11:17:49.505Z,994.85
2024-03-23T11:18:49.506Z,994.82
2024-03-23T11:19:50.739Z,994.85
2024-03-23T11:20:49.476Z,994.87
2024-03-23T11:21:49.459Z,994.77
2024-03-23T11:22:49.466Z,994.87
2024-03-23T11:23:49.430Z,994.83
2024-03-23T11:24:49.416Z,994.84
2024-03-23T11:25:50.327Z,994.86
2024-03-23T11:26:49.395Z,994.86
2024-03-23T11:27:49.392Z,994.85
2024-03-23T11:28:49.390Z,994.88
2024-03-23T11:29:49.363Z,994.79
2024-03-23T11:30:49.356Z,994.81
2024-03-23T11:31:49.351Z,994.71
2024-03-23T11:32:49.334Z,994.80
2024-03-23T11:33:49.341Z,994.78
2024-03-23T11:34:49.347Z,994.77
2024-03-23T11:35:49.312Z,994.75
2024-03-23T11:36:49.293Z,994.82
2024-03-23T11:37:49.275Z,994.74
2024-03-23T11:38:49.285Z,994.80
2024-03-23T11:39:49.288Z,994.72
2024-03-23T11:40:49.238Z,994.77
2024-03-23T11:41:49.234Z,994.82
2024-03-23T11:42:49.225Z,994.86
2024-03-23T11:43:50.773Z,994.82
2024-03-23T11:44:49.217Z,994.88
2024-03-23T11:45:49.200Z,994.87
2024-03-23T11:46:49.178Z,994.87
2024-03-23T11:47:49.171Z,994.80
2024-03-23T11:48:49.190Z,994.80
2024-03-23T11:49:50.613Z,994.75
2024-03-23T11:50:49.163Z,994.70
2024-03-23T11:51:49.156Z,994.69
2024-03-23T11:52:49.111Z,994.67
2024-03-23T11:53:49.125Z,994.70
2024-03-23T11:54:49.110Z,994.72
2024-03-23T11:55:50.883Z,994.66
2024-03-23T11:56:49.072Z,994.58
2024-03-23T11:57:49.050Z,994.64
2024-03-23T11:58:49.048Z,994.61
2024-03-23T11:59:49.039Z,994.64
2024-03-23T12:00:49.053Z,994.56
2024-03-23T12:01:50.417Z,994.57
2024-03-23T12:02:49.012Z,994.53
2024-03-23T12:03:49.003Z,994.50
2024-03-23T12:04:48.996Z,994.52
2024-03-23T12:05:48.973Z,994.51
2024-03-23T12:06:48.955Z,994.50
2024-03-23T12:07:50.441Z,994.45
2024-03-23T12:08:48.955Z,994.54
2024-03-23T12:09:48.921Z,994.44
2024-03-23T12:10:48.947Z,994.46
2024-03-23T12:11:48.907Z,994.42
2024-03-23T12:12:48.898Z,994.48
2024-03-23T12:13:48.916Z,994.44
2024-03-23T12:14:48.894Z,994.51
2024-03-23T12:15:48.893Z,994.53
2024-03-23T12:16:48.850Z,994.47
2024-03-23T12:17:48.838Z,994.43
2024-03-23T12:18:48.830Z,994.45
2024-03-23T12:19:48.874Z,994.50
2024-03-23T12:20:48.805Z,994.50
2024-03-23T12:21:48.806Z,994.41
2024-03-23T12:22:48.795Z,994.40
2024-03-23T12:23:48.783Z,994.41
2024-03-23T12:24:48.775Z,994.41
2024-03-23T12:25:48.752Z,994.39
2024-03-23T12:26:48.739Z,994.42
2024-03-23T12:27:48.728Z,994.50
2024-03-23T12:28:48.737Z,994.42
2024-03-23T12:29:48.713Z,994.44